createdAt,value
2022-11-29T00:01:56.144Z,33.80
2022-11-29T00:04:24.520Z,36.70
2022-11-29T00:06:52.849Z,34.93
2022-11-29T00:09:21.462Z,34.33
2022-11-29T00:12:07.496Z,37.70
2022-11-29T00:14:36.117Z,34.60
2022-11-29T00:17:06.485Z,34.77
2022-11-29T00:19:36.889Z,37.70
2022-11-29T00:22:05.832Z,36.97
2022-11-29T00:24:34.634Z,35.40
2022-11-29T00:27:03.592Z,34.40
2022-11-29T00:29:32.170Z,35.40
2022-11-29T00:32:01.168Z,36.30
2022-11-29T00:34:30.966Z,34.30
2022-11-29T00:36:59.728Z,36.67
2022-11-29T00:39:28.398Z,36.73
2022-11-29T00:41:57.170Z,39.13
2022-11-29T00:44:25.771Z,35.40
2022-11-29T00:46:54.136Z,38.80
2022-11-29T00:49:22.541Z,40.10
2022-11-29T00:51:52.291Z,37.87
2022-11-29T00:54:20.591Z,39.60
2022-11-29T00:56:49.215Z,39.33
2022-11-29T00:59:17.570Z,40.77
2022-11-29T01:01:46.391Z,39.53
2022-11-29T01:04:15.091Z,41.07
2022-11-29T01:06:43.506Z,38.10
2022-11-29T01:09:13.323Z,43.30
2022-11-29T01:11:41.739Z,37.57
2022-11-29T01:14:12.371Z,35.43
2022-11-29T01:16:40.756Z,40.43
2022-11-29T01:19:09.514Z,40.67
2022-11-29T01:21:37.881Z,38.90
2022-11-29T01:24:07.050Z,43.17
2022-11-29T01:26:36.987Z,44.07
2022-11-29T01:29:05.341Z,41.80
2022-11-29T01:31:36.511Z,39.13
2022-11-29T01:34:07.803Z,43.17
2022-11-29T01:36:37.048Z,38.17
2022-11-29T01:39:07.792Z,42.33
2022-11-29T01:41:38.833Z,44.57
2022-11-29T01:44:29.221Z,46.20
2022-11-29T01:46:58.928Z,43.47
2022-11-29T01:49:34.630Z,44.23
2022-11-29T01:52:07.710Z,48.50
2022-11-29T01:54:43.510Z,44.40
2022-11-29T01:57:15.460Z,47.07
2022-11-29T01:59:47.536Z,44.73
2022-11-29T02:02:19.468Z,44.10
2022-11-29T02:04:51.120Z,45.83
2022-11-29T02:07:20.944Z,43.50
2022-11-29T02:09:49.231Z,43.63
2022-11-29T02:12:31.145Z,45.43
2022-11-29T02:15:24.631Z,50.13
2022-11-29T02:18:07.869Z,50.43
2022-11-29T02:21:12.919Z,46.97
2022-11-29T02:24:16.208Z,48.47
2022-11-29T02:27:37.282Z,46.67
2022-11-29T02:30:20.735Z,49.27
2022-11-29T02:33:34.363Z,51.73
2022-11-29T02:36:24.734Z,46.33
2022-11-29T02:39:26.345Z,48.07
2022-11-29T02:42:55.797Z,54.93
2022-11-29T02:45:47.691Z,50.37
2022-11-29T02:49:02.259Z,45.50
2022-11-29T02:51:43.921Z,51.07
2022-11-29T02:54:24.961Z,50.17
2022-11-29T02:57:01.196Z,48.37
2022-11-29T02:59:48.058Z,48.87
2022-11-29T03:02:27.750Z,51.87
2022-11-29T03:05:13.952Z,45.50
2022-11-29T03:07:54.396Z,47.57
2022-11-29T03:10:36.144Z,44.43
2022-11-29T03:13:15.359Z,45.07
2022-11-29T03:15:56.465Z,52.50
2022-11-29T03:18:36.122Z,50.23
2022-11-29T03:21:24.606Z,51.37
2022-11-29T03:23:58.644Z,47.70
2022-11-29T03:26:36.553Z,50.43
2022-11-29T03:29:16.281Z,51.63
2022-11-29T03:31:53.188Z,50.90
2022-11-29T03:34:36.971Z,49.23
2022-11-29T03:37:15.791Z,52.33
2022-11-29T03:39:53.075Z,52.60
2022-11-29T03:42:30.471Z,54.10
2022-11-29T03:45:09.890Z,45.83
2022-11-29T03:47:49.885Z,47.47
2022-11-29T03:50:23.335Z,48.33
2022-11-29T03:53:01.072Z,45.73
2022-11-29T03:55:34.856Z,49.43
2022-11-29T03:58:26.298Z,49.03
2022-11-29T04:01:38.553Z,48.60
2022-11-29T04:05:23.032Z,46.23
2022-11-29T04:08:29.084Z,48.23
2022-11-29T04:11:29.642Z,46.57
2022-11-29T04:14:34.556Z,47.43
2022-11-29T04:17:34.094Z,44.03
2022-11-29T04:20:38.815Z,47.73
2022-11-29T04:23:47.707Z,45.57
2022-11-29T04:26:58.048Z,47.67
2022-11-29T04:29:51.040Z,49.07
2022-11-29T04:33:01.725Z,52.70
2022-11-29T04:35:52.670Z,52.33
2022-11-29T04:39:08.415Z,54.97
2022-11-29T04:42:21.268Z,50.77
2022-11-29T04:45:18.143Z,57.10
2022-11-29T04:48:03.037Z,53.73
2022-11-29T04:50:54.516Z,56.10
2022-11-29T04:53:34.923Z,53.47
2022-11-29T04:56:18.951Z,58.00
2022-11-29T04:59:00.236Z,54.10
2022-11-29T05:01:44.570Z,55.23
2022-11-29T05:04:22.788Z,52.33
2022-11-29T05:07:04.352Z,54.67
2022-11-29T05:09:45.541Z,54.50
2022-11-29T05:12:29.089Z,50.43
2022-11-29T05:15:33.740Z,59.83
2022-11-29T05:18:19.373Z,58.47
2022-11-29T05:21:01.401Z,53.33
2022-11-29T05:23:46.897Z,56.93
2022-11-29T05:26:24.514Z,58.90
2022-11-29T05:29:02.949Z,60.37
2022-11-29T05:31:57.755Z,58.10
2022-11-29T05:35:05.335Z,61.97
2022-11-29T05:37:45.445Z,57.10
2022-11-29T05:40:45.653Z,53.17
2022-11-29T05:43:33.647Z,59.40
2022-11-29T05:46:12.732Z,55.70
2022-11-29T05:48:55.370Z,63.23
2022-11-29T05:51:38.442Z,56.07
2022-11-29T05:54:21.112Z,54.27
2022-11-29T05:57:05.048Z,59.53
2022-11-29T05:59:39.444Z,59.63
2022-11-29T06:02:29.250Z,59.33
2022-11-29T06:05:11.690Z,58.57
2022-11-29T06:07:51.877Z,59.53
2022-11-29T06:10:26.380Z,58.30
2022-11-29T06:13:14.671Z,61.53
2022-11-29T06:16:23.675Z,58.57
2022-11-29T06:19:34.031Z,60.07
2022-11-29T06:22:28.951Z,61.23
2022-11-29T06:25:18.237Z,62.93
2022-11-29T06:28:10.851Z,65.40
2022-11-29T06:30:59.546Z,70.70
2022-11-29T06:33:39.817Z,62.43
2022-11-29T06:36:28.029Z,65.77
2022-11-29T06:38:58.385Z,74.93
2022-11-29T06:41:27.660Z,65.17
2022-11-29T06:43:57.111Z,62.33
2022-11-29T06:46:45.105Z,64.33
2022-11-29T06:49:23.543Z,70.13
2022-11-29T06:52:09.405Z,71.53
2022-11-29T06:55:04.455Z,58.87
2022-11-29T06:57:48.366Z,66.70
2022-11-29T07:00:21.674Z,62.63
2022-11-29T07:03:20.885Z,62.87
2022-11-29T07:05:50.360Z,61.73
2022-11-29T07:08:23.097Z,62.47
2022-11-29T07:10:55.740Z,63.20
2022-11-29T07:13:25.304Z,64.73
2022-11-29T07:16:04.655Z,70.50
2022-11-29T07:18:45.614Z,72.37
2022-11-29T07:21:29.364Z,66.63
2022-11-29T07:24:09.853Z,65.57
2022-11-29T07:26:56.486Z,70.03
2022-11-29T07:29:41.992Z,70.63
2022-11-29T07:32:23.511Z,69.67
2022-11-29T07:35:05.267Z,68.30
2022-11-29T07:37:46.326Z,63.07
2022-11-29T07:40:20.197Z,65.13
2022-11-29T07:43:19.470Z,71.10
2022-11-29T07:45:48.527Z,65.57
2022-11-29T07:48:18.758Z,64.20
2022-11-29T07:50:48.514Z,71.77
2022-11-29T07:53:19.667Z,64.40
2022-11-29T07:55:49.547Z,63.90
2022-11-29T07:58:20.570Z,64.70
2022-11-29T08:00:49.004Z,67.13
2022-11-29T08:03:17.330Z,65.33
2022-11-29T08:05:48.110Z,65.17
2022-11-29T08:08:17.356Z,64.07
2022-11-29T08:10:46.516Z,63.57
2022-11-29T08:13:15.453Z,65.43
2022-11-29T08:15:50.379Z,61.67
2022-11-29T08:18:19.373Z,64.37
2022-11-29T08:20:47.689Z,61.97
2022-11-29T08:23:17.052Z,71.70
2022-11-29T08:25:46.077Z,65.20
2022-11-29T08:28:15.159Z,63.33
2022-11-29T08:30:43.594Z,67.87
2022-11-29T08:33:13.254Z,70.87
2022-11-29T08:35:42.182Z,69.17
2022-11-29T08:38:10.514Z,65.27
2022-11-29T08:40:38.942Z,67.60
2022-11-29T08:43:07.201Z,64.83
2022-11-29T08:45:35.642Z,70.30
2022-11-29T08:48:04.660Z,63.77
2022-11-29T08:50:34.716Z,60.97
2022-11-29T08:53:20.716Z,70.63
2022-11-29T08:55:49.202Z,62.60
2022-11-29T08:58:18.318Z,58.30
2022-11-29T09:00:47.237Z,64.23
2022-11-29T09:03:33.662Z,58.10
2022-11-29T09:06:12.240Z,67.83
2022-11-29T09:08:43.517Z,67.87
2022-11-29T09:11:14.213Z,68.33
2022-11-29T09:13:44.334Z,66.93
2022-11-29T09:16:18.092Z,66.43
2022-11-29T09:18:51.962Z,63.50
2022-11-29T09:21:22.451Z,62.90
2022-11-29T09:23:57.746Z,70.73
2022-11-29T09:26:29.354Z,67.83
2022-11-29T09:29:01.363Z,67.67
2022-11-29T09:31:31.664Z,61.57
2022-11-29T09:34:00.466Z,65.27
2022-11-29T09:36:31.959Z,66.90
2022-11-29T09:39:03.644Z,61.10
2022-11-29T09:42:14.436Z,64.87
2022-11-29T09:45:02.437Z,65.97
2022-11-29T09:48:08.867Z,59.70
2022-11-29T09:50:43.176Z,60.20
2022-11-29T09:53:34.349Z,59.60
2022-11-29T09:56:19.681Z,59.23
2022-11-29T09:58:58.525Z,61.03
2022-11-29T10:01:33.258Z,58.33
2022-11-29T10:04:08.979Z,61.40
2022-11-29T10:06:45.117Z,61.10
2022-11-29T10:09:23.850Z,58.83
2022-11-29T10:12:04.868Z,57.40
2022-11-29T10:14:44.999Z,54.07
2022-11-29T10:17:27.271Z,55.70
2022-11-29T10:20:04.269Z,62.50
2022-11-29T10:22:44.859Z,59.27
2022-11-29T10:25:25.031Z,55.43
2022-11-29T10:27:55.028Z,58.93
2022-11-29T10:30:23.946Z,58.37
2022-11-29T10:33:01.422Z,52.33
2022-11-29T10:35:30.545Z,56.07
2022-11-29T10:38:29.898Z,52.53
2022-11-29T10:41:05.262Z,59.37
2022-11-29T10:43:34.138Z,52.67
2022-11-29T10:46:02.750Z,54.83
2022-11-29T10:48:35.319Z,52.50
2022-11-29T10:51:04.373Z,49.83
2022-11-29T10:53:37.936Z,52.77
2022-11-29T10:56:18.009Z,53.80
2022-11-29T10:58:58.497Z,53.53
2022-11-29T11:01:29.137Z,53.93
2022-11-29T11:04:00.143Z,56.03
2022-11-29T11:06:44.932Z,57.20
2022-11-29T11:09:21.908Z,52.70
2022-11-29T11:11:58.718Z,48.70
2022-11-29T11:14:30.672Z,50.63
2022-11-29T11:17:21.851Z,53.83
2022-11-29T11:19:59.242Z,48.60
2022-11-29T11:22:29.519Z,47.57
2022-11-29T11:25:01.948Z,52.33
2022-11-29T11:27:39.734Z,51.70
2022-11-29T11:30:23.992Z,52.00
2022-11-29T11:33:08.952Z,49.83
2022-11-29T11:35:54.058Z,49.10
2022-11-29T11:46:03.221Z,50.03
2022-11-29T11:48:35.023Z,49.50
2022-11-29T11:54:02.080Z,51.70
2022-11-29T11:56:36.957Z,54.80
2022-11-29T11:59:06.633Z,53.00
2022-11-29T12:01:41.060Z,49.73
2022-11-29T12:04:16.607Z,52.03
2022-11-29T12:06:52.337Z,48.20
2022-11-29T12:09:35.258Z,48.83
2022-11-29T12:12:16.895Z,47.47
2022-11-29T12:14:56.914Z,49.77
2022-11-29T12:17:38.072Z,46.50
2022-11-29T12:20:25.734Z,51.63
2022-11-29T12:23:20.750Z,45.90
2022-11-29T12:25:57.294Z,43.87
2022-11-29T12:28:32.922Z,42.10
2022-11-29T12:31:13.581Z,42.67
2022-11-29T12:33:54.088Z,47.43
2022-11-29T12:36:42.556Z,43.53
2022-11-29T12:39:45.651Z,41.67
2022-11-29T12:42:27.756Z,44.43
2022-11-29T12:45:05.399Z,44.13
2022-11-29T12:47:52.433Z,43.60
2022-11-29T12:50:51.411Z,42.37
2022-11-29T12:53:35.819Z,38.30
2022-11-29T12:56:16.137Z,38.83
2022-11-29T12:59:03.527Z,39.47
2022-11-29T13:01:51.346Z,42.07
2022-11-29T13:04:30.497Z,39.50
2022-11-29T13:07:13.078Z,38.90
2022-11-29T13:10:21.932Z,36.80
2022-11-29T13:12:55.251Z,37.63
2022-11-29T13:15:30.978Z,36.67
2022-11-29T13:18:08.956Z,36.87
2022-11-29T13:20:49.177Z,36.63
2022-11-29T13:23:46.123Z,36.73
2022-11-29T13:26:18.690Z,38.53
2022-11-29T13:28:47.775Z,35.03
2022-11-29T13:31:21.092Z,36.70
2022-11-29T13:34:02.344Z,39.23
2022-11-29T13:36:46.852Z,38.83
2022-11-29T13:39:44.281Z,36.77
2022-11-29T13:42:23.590Z,35.00
2022-11-29T13:45:05.108Z,36.70
2022-11-29T13:47:33.553Z,37.33
2022-11-29T13:50:04.155Z,41.57
2022-11-29T13:52:42.923Z,40.33
2022-11-29T13:55:31.282Z,37.83
2022-11-29T13:58:18.142Z,43.97
2022-11-29T14:00:53.278Z,40.90
2022-11-29T14:03:32.594Z,40.43
2022-11-29T14:06:15.310Z,39.23
2022-11-29T14:09:21.690Z,39.57
2022-11-29T14:12:02.835Z,41.10
2022-11-29T14:14:41.294Z,39.77
2022-11-29T14:17:49.534Z,38.00
2022-11-29T14:20:59.414Z,41.27
2022-11-29T14:23:41.655Z,38.07
2022-11-29T14:26:33.091Z,39.73
2022-11-29T14:29:38.383Z,39.00
2022-11-29T14:32:23.498Z,41.03
2022-11-29T14:35:00.710Z,38.57
2022-11-29T14:37:56.822Z,36.33
2022-11-29T14:40:35.460Z,37.77
2022-11-29T14:43:21.698Z,36.63
2022-11-29T14:46:26.100Z,37.97
2022-11-29T14:49:04.463Z,39.00
2022-11-29T14:51:35.495Z,41.70
2022-11-29T14:54:14.369Z,41.33
2022-11-29T14:56:45.486Z,36.20
2022-11-29T14:59:50.429Z,37.20
2022-11-29T15:02:35.132Z,41.47
2022-11-29T15:05:22.918Z,40.57
2022-11-29T15:08:02.860Z,44.50
2022-11-29T15:10:40.099Z,37.20
2022-11-29T15:13:15.116Z,38.17
2022-11-29T15:16:14.015Z,43.53
2022-11-29T15:19:13.646Z,39.17
2022-11-29T15:21:55.691Z,38.63
2022-11-29T15:24:28.265Z,38.83
2022-11-29T15:26:59.225Z,38.57
2022-11-29T15:29:32.664Z,40.53
2022-11-29T15:32:06.862Z,41.10
2022-11-29T15:34:45.291Z,35.50
2022-11-29T15:37:24.584Z,37.67
2022-11-29T15:40:04.482Z,39.73
2022-11-29T15:42:42.420Z,35.40
2022-11-29T15:45:32.825Z,40.73
2022-11-29T15:48:25.769Z,35.43
2022-11-29T15:51:10.230Z,38.53
2022-11-29T15:53:47.262Z,39.37
2022-11-29T15:56:20.727Z,39.37
2022-11-29T15:58:53.228Z,41.03
2022-11-29T16:01:23.061Z,38.60
2022-11-29T16:03:56.872Z,37.97
2022-11-29T16:06:35.994Z,34.23
2022-11-29T16:09:07.666Z,39.30
2022-11-29T16:11:39.145Z,38.93
2022-11-29T16:14:23.171Z,39.67
2022-11-29T16:16:55.504Z,39.50
2022-11-29T16:19:30.765Z,34.77
2022-11-29T16:22:24.933Z,37.73
2022-11-29T16:25:03.777Z,39.27
2022-11-29T16:27:34.905Z,38.27
2022-11-29T16:30:03.957Z,38.30
2022-11-29T16:32:35.708Z,36.90
2022-11-29T16:35:14.026Z,37.47
2022-11-29T16:37:46.890Z,43.37
2022-11-29T16:40:25.634Z,41.87
2022-11-29T16:43:20.421Z,35.93
2022-11-29T16:45:48.935Z,35.03
2022-11-29T16:48:31.785Z,37.50
2022-11-29T16:51:23.736Z,34.07
2022-11-29T16:53:55.876Z,36.23
2022-11-29T16:56:34.645Z,36.47
2022-11-29T16:59:24.597Z,34.23
2022-11-29T17:01:53.021Z,35.73
2022-11-29T17:04:24.848Z,36.47
2022-11-29T17:06:54.937Z,37.07
2022-11-29T17:09:27.838Z,33.30
2022-11-29T17:11:59.814Z,35.93
2022-11-29T17:14:29.458Z,37.43
2022-11-29T17:17:00.634Z,37.60
2022-11-29T17:19:31.992Z,36.90
2022-11-29T17:22:00.761Z,38.20
2022-11-29T17:24:32.110Z,38.60
2022-11-29T17:27:00.548Z,37.93
2022-11-29T17:29:29.046Z,38.00
2022-11-29T17:31:57.875Z,34.63
2022-11-29T17:34:27.728Z,37.50
2022-11-29T17:36:59.606Z,38.67
2022-11-29T17:39:32.231Z,38.80
2022-11-29T17:42:02.203Z,36.17
2022-11-29T17:44:35.891Z,36.80
2022-11-29T17:47:04.799Z,33.50
2022-11-29T17:49:33.631Z,32.23
2022-11-29T17:52:02.142Z,31.57
2022-11-29T17:54:33.202Z,34.17
2022-11-29T17:57:03.742Z,37.77
2022-11-29T17:59:32.111Z,36.87
2022-11-29T18:02:02.088Z,33.07
2022-11-29T18:04:30.525Z,30.67
2022-11-29T18:06:59.500Z,35.83
2022-11-29T18:09:28.253Z,35.90
2022-11-29T18:11:58.318Z,32.17
2022-11-29T18:14:28.448Z,31.07
2022-11-29T18:16:57.022Z,32.10
2022-11-29T18:19:25.436Z,27.87
2022-11-29T18:21:53.817Z,25.30
2022-11-29T18:24:22.144Z,31.87
2022-11-29T18:26:50.574Z,29.63
2022-11-29T18:29:20.599Z,33.20
2022-11-29T18:31:48.884Z,27.17
2022-11-29T18:34:17.332Z,30.03
2022-11-29T18:36:48.513Z,29.07
2022-11-29T18:39:19.188Z,33.83
2022-11-29T18:41:49.613Z,30.23
2022-11-29T18:44:21.969Z,34.73
2022-11-29T18:46:50.686Z,39.13
2022-11-29T18:49:19.685Z,33.83
2022-11-29T18:51:49.790Z,33.60
2022-11-29T18:54:19.915Z,34.03
2022-11-29T18:56:51.301Z,38.03
2022-11-29T18:59:23.015Z,44.53
2022-11-29T19:01:51.669Z,35.60
2022-11-29T19:04:24.089Z,39.10
2022-11-29T19:06:53.476Z,34.33
2022-11-29T19:09:23.964Z,34.43
2022-11-29T19:11:52.596Z,36.97
2022-11-29T19:14:23.214Z,35.33
2022-11-29T19:16:52.391Z,36.63
2022-11-29T19:19:23.931Z,43.60
2022-11-29T19:21:53.048Z,33.67
2022-11-29T19:24:22.729Z,39.73
2022-11-29T19:26:55.544Z,39.87
2022-11-29T19:29:28.568Z,38.87
2022-11-29T19:31:57.133Z,40.17
2022-11-29T19:34:26.490Z,42.57
2022-11-29T19:36:58.500Z,43.73
2022-11-29T19:39:31.332Z,43.00
2022-11-29T19:42:00.067Z,41.10
2022-11-29T19:44:35.905Z,36.40
2022-11-29T19:47:17.156Z,35.70
2022-11-29T19:49:46.849Z,38.10
2022-11-29T19:52:15.555Z,37.97
2022-11-29T19:54:44.168Z,34.50
2022-11-29T19:57:13.812Z,41.07
2022-11-29T19:59:44.265Z,38.63
2022-11-29T20:02:13.545Z,38.83
2022-11-29T20:04:45.731Z,38.37
2022-11-29T20:07:14.305Z,35.70
2022-11-29T20:09:43.531Z,35.27
2022-11-29T20:12:12.970Z,33.40
2022-11-29T20:14:41.441Z,35.27
2022-11-29T20:17:11.545Z,36.63
2022-11-29T20:19:40.139Z,36.57
2022-11-29T20:22:08.801Z,31.17
2022-11-29T20:24:42.632Z,35.00
2022-11-29T20:27:14.116Z,37.93
2022-11-29T20:29:42.672Z,37.00
2022-11-29T20:32:13.055Z,30.47
2022-11-29T20:34:42.669Z,33.57
2022-11-29T20:37:39.930Z,32.87
2022-11-29T20:40:19.092Z,30.00
2022-11-29T20:43:12.964Z,32.43
2022-11-29T20:45:42.355Z,33.87
2022-11-29T20:48:19.641Z,33.67
2022-11-29T20:51:00.334Z,34.00
2022-11-29T20:53:36.333Z,33.53
2022-11-29T20:56:08.116Z,31.23
2022-11-29T20:58:37.092Z,38.63
2022-11-29T21:01:07.547Z,33.90
2022-11-29T21:03:38.182Z,33.87
2022-11-29T21:06:08.621Z,31.13
2022-11-29T21:08:37.919Z,36.13
2022-11-29T21:11:09.218Z,34.00
2022-11-29T21:13:39.204Z,34.73
2022-11-29T21:16:12.598Z,37.07
2022-11-29T21:18:43.981Z,33.63
2022-11-29T21:21:25.939Z,31.80
2022-11-29T21:24:06.776Z,34.63
2022-11-29T21:26:42.186Z,37.00
2022-11-29T21:29:19.472Z,36.40
2022-11-29T21:31:50.984Z,34.10
2022-11-29T21:37:32.116Z,37.73
2022-11-29T21:40:00.648Z,41.07
2022-11-29T21:42:29.513Z,39.27
2022-11-29T21:44:57.968Z,39.50
2022-11-29T21:47:26.958Z,38.47
2022-11-29T21:49:57.635Z,38.07
2022-11-29T21:52:27.146Z,40.57
2022-11-29T21:54:56.409Z,42.30
2022-11-29T21:57:25.303Z,44.50
2022-11-29T21:59:54.009Z,50.80
2022-11-29T22:02:22.731Z,45.80
2022-11-29T22:04:51.547Z,42.97
2022-11-29T22:07:23.116Z,45.20
2022-11-29T22:09:55.467Z,47.73
2022-11-29T22:12:34.336Z,48.37
2022-11-29T22:15:04.347Z,44.50
2022-11-29T22:17:34.036Z,52.07
2022-11-29T22:20:03.516Z,49.80
2022-11-29T22:22:39.547Z,49.00
2022-11-29T22:25:09.655Z,51.53
2022-11-29T22:27:39.121Z,53.20
2022-11-29T22:30:12.137Z,50.57
2022-11-29T22:32:41.439Z,51.20
2022-11-29T22:35:10.932Z,53.80
2022-11-29T22:37:41.254Z,58.47
2022-11-29T22:40:10.887Z,49.37
2022-11-29T22:42:41.519Z,50.90
2022-11-29T22:45:11.513Z,52.50
2022-11-29T22:47:40.098Z,56.37
2022-11-29T22:50:10.196Z,56.63
2022-11-29T22:52:40.592Z,53.53
2022-11-29T22:55:10.349Z,56.23
2022-11-29T22:57:39.214Z,57.43
2022-11-29T23:00:10.087Z,57.30
2022-11-29T23:02:39.130Z,59.00
2022-11-29T23:05:08.682Z,62.17
2022-11-29T23:07:37.454Z,63.87
2022-11-29T23:10:09.405Z,59.87
2022-11-29T23:12:37.979Z,54.33
2022-11-29T23:15:08.035Z,61.60
2022-11-29T23:17:37.190Z,55.87
2022-11-29T23:20:07.844Z,55.53
2022-11-29T23:22:39.959Z,65.40
2022-11-29T23:25:10.851Z,60.93
2022-11-29T23:27:39.443Z,60.87
2022-11-29T23:30:10.151Z,57.57
2022-11-29T23:32:39.684Z,62.80
2022-11-29T23:35:09.902Z,55.83
2022-11-29T23:37:41.532Z,57.07
2022-11-29T23:40:13.240Z,52.90
2022-11-29T23:42:46.441Z,53.17
2022-11-29T23:45:15.963Z,49.33
2022-11-29T23:47:44.627Z,60.87
2022-11-29T23:50:19.007Z,56.90
2022-11-29T23:52:56.260Z,61.50
2022-11-29T23:55:31.055Z,53.23
2022-11-29T23:58:03.555Z,66.07
